Decoded Metar for PAJC (CHIGNIK BAY in AK, USA) (IATA:AJC) | Meteo·Mobile Aviation Weather
aviador You're here:

PAJC Decoded Metar

CHIGNIK BAY in AK, USA
Report Time2019-03-20 22:57:00
UTC Time2019-03-20 23:15:35
Flight Rules ifr IFR
WindCalm
Visibility2414 m
Phenomena:Light Snow
Mist
Clouds:Overcast 019 Hf
Expected CloudBase > 400 ft AGL from Temp-Dew spread
Ceiling1,900 ft
Temp02°C (ISA -13)
Dew Point01°C (93% RH)
AAT0.2°C
QNH987 hPa
Density Alt-535 ft
Elevation49 ft
Report Wrong Elevation
Raw Report
PAJC 202257Z AUTO 00000KT 1 1/2SM -SN BR OVC019 02/01 A2915 RMK
AO2 SLP872 P0000 T00170006 FZRANO=

Extra information for PAJC:More info

Metar Taf Metar & Taf Last 4 Metars F.Rules Stats Wind Profile Meteogram Temp Stats Airport Information Weather charts Add Link Nearby VenuesMetar ALERT Operation Metar Decoded Social comments

AIRNAV info for PAJC